Time;durP1;ratioP1;P1;durP2;ratioP2;P2;SDS_P1;SDS_P2;PMS_P1;PMS_P2;Temp;Humidity;BMP_temperature;BMP_pressure;BME280_temperature;BME280_humidity;BME280_pressure;Samples;Min_cycle;Max_cycle;Signal;HPM_P1;HPM_P2
2023/03/26 00:00:56;;;;;;;;;;;;;;;7.09;97.71;100647.13;5056208;28;1273;-75
2023/03/26 00:03:22;;;;;;;;;;;;;;;7.12;98.89;100632.28;5056732;28;1460;-75
2023/03/26 00:05:47;;;;;;;;;;;;;;;7.11;97.78;100640.09;5051182;28;2019;-75
2023/03/26 00:08:13;;;;;;;;;;;;;;;7.13;98.17;100648.59;5052042;28;1315;-75
2023/03/26 00:10:39;;;;;;;;;;;;;;;7.14;99.00;100639.91;5049809;28;1545;-77
2023/03/26 00:13:05;;;;;;;;;;;;;;;7.18;98.75;100636.19;5055836;28;1220;-75
2023/03/26 00:15:31;;;;;;;;;;;;;;;7.16;98.49;100627.72;5052850;28;4902;-76
2023/03/26 00:17:56;;;;;;;;;;;;;;;7.19;98.67;100632.66;5056306;28;2389;-75
2023/03/26 00:20:22;;;;;;;;;;;;;;;7.18;98.52;100631.03;5069002;28;1323;-75
2023/03/26 00:22:47;;;;;;;;;;;;;;;7.18;99.40;100629.28;5055805;28;970;-74
2023/03/26 00:25:12;;;;;;;;;;;;;;;7.19;99.52;100630.09;5052059;28;1898;-75
2023/03/26 00:27:38;;;;;;;;;;;;;;;7.18;99.37;100623.28;5046755;28;977;-75
2023/03/26 00:30:03;;;;;;;;;;;;;;;7.22;99.59;100622.13;5055122;28;1681;-75
2023/03/26 00:32:29;;;;;;;;;;;;;;;7.22;99.68;100626.47;5049582;28;1403;-75
2023/03/26 00:34:55;;;;;;;;;;;;;;;7.22;99.72;100616.97;5050170;28;1105;-76
2023/03/26 00:37:25;;;;;;;;;;;;;;;7.26;99.87;100623.56;5060695;28;1354;-75
2023/03/26 00:39:51;;;;;;;;;;;;;;;7.25;99.91;100616.75;5047980;28;1705;-76
2023/03/26 00:42:16;;;;;;;;;;;;;;;7.26;99.09;100613.25;5054192;28;1167;-75
2023/03/26 00:44:41;;;;;;;;;;;;;;;7.26;99.65;100618.41;5063423;28;1226;-75
2023/03/26 00:47:06;;;;;;;;;;;;;;;7.26;99.89;100602.09;5057175;28;1957;-75
2023/03/26 00:49:32;;;;;;;;;;;;;;;7.28;99.88;100592.50;5053810;28;1268;-75
2023/03/26 00:51:57;;;;;;;;;;;;;;;7.28;99.42;100601.06;5050340;28;1569;-75
2023/03/26 00:54:22;;;;;;;;;;;;;;;7.30;99.73;100588.88;5060150;28;1895;-75
2023/03/26 00:56:47;;;;;;;;;;;;;;;7.32;99.87;100587.00;5063335;28;1290;-75
2023/03/26 00:59:13;;;;;;;;;;;;;;;7.30;99.96;100588.88;5058542;28;1445;-75
2023/03/26 01:01:38;;;;;;;;;;;;;;;7.36;100.00;100593.59;5054009;28;1267;-75
2023/03/26 01:04:25;;;;;;;;;;;;;;;7.34;100.00;100585.16;5058282;28;1573;-75
2023/03/26 01:06:51;;;;;;;;;;;;;;;7.36;100.00;100578.13;5062633;28;1957;-75
2023/03/26 01:09:17;;;;;;;;;;;;;;;7.34;100.00;100577.41;5053838;28;1334;-76
2023/03/26 01:11:43;;;;;;;;;;;;;;;7.35;100.00;100571.31;5067698;28;1368;-75
2023/03/26 01:14:13;;;;;;;;;;;;;;;7.32;100.00;100573.28;5059322;28;5068;-75
2023/03/26 01:16:41;;;;;;;;;;;;;;;7.28;99.74;100564.94;5057236;28;1433;-75
2023/03/26 01:19:09;;;;;;;;;;;;;;;7.35;100.00;100561.00;5061826;28;1318;-75
2023/03/26 01:21:34;;;;;;;;;;;;;;;7.25;100.00;100569.50;5064694;28;1536;-76
2023/03/26 01:24:00;;;;;;;;;;;;;;;7.22;99.89;100562.81;5056118;28;1891;-76
2023/03/26 01:26:37;;;;;;;;;;;;;;;7.18;99.86;100559.63;5058005;28;1894;-75
2023/03/26 01:29:07;;;;;;;;;;;;;;;7.17;100.00;100562.34;5056660;28;1259;-75
2023/03/26 01:31:37;;;;;;;;;;;;;;;7.17;100.00;100554.59;5061302;28;1649;-75
2023/03/26 01:34:14;;;;;;;;;;;;;;;7.16;100.00;100551.16;5050410;28;1271;-75
2023/03/26 01:37:01;;;;;;;;;;;;;;;7.16;100.00;100545.19;5051419;28;1390;-75
2023/03/26 01:39:29;;;;;;;;;;;;;;;7.13;100.00;100535.09;5055524;28;1334;-75
2023/03/26 01:42:01;;;;;;;;;;;;;;;7.18;100.00;100533.03;5057964;28;1370;-75
2023/03/26 01:44:30;;;;;;;;;;;;;;;7.17;100.00;100536.53;5062069;28;1348;-75
2023/03/26 01:46:57;;;;;;;;;;;;;;;7.17;100.00;100527.03;5053416;28;1955;-75
2023/03/26 01:49:25;;;;;;;;;;;;;;;7.17;100.00;100521.06;5054196;28;1249;-75
2023/03/26 01:51:51;;;;;;;;;;;;;;;7.19;100.00;100511.44;5063357;28;1523;-75
2023/03/26 01:54:18;;;;;;;;;;;;;;;7.20;100.00;100515.66;5058012;28;1287;-75
2023/03/26 01:56:46;;;;;;;;;;;;;;;7.21;100.00;100516.50;5053796;28;1969;-75
2023/03/26 01:59:24;;;;;;;;;;;;;;;7.20;100.00;100510.50;5064662;28;1591;-75
2023/03/26 02:02:07;;;;;;;;;;;;;;;7.22;100.00;100515.56;5075412;28;1227;-74
2023/03/26 02:04:38;;;;;;;;;;;;;;;7.22;100.00;100507.81;5052116;28;1443;-75
2023/03/26 02:07:21;;;;;;;;;;;;;;;7.24;100.00;100511.13;5059106;28;1971;-74
2023/03/26 02:09:49;;;;;;;;;;;;;;;7.22;100.00;100508.63;5052056;28;1208;-75
2023/03/26 02:12:15;;;;;;;;;;;;;;;7.22;100.00;100507.81;5058677;28;2584;-74
2023/03/26 02:14:41;;;;;;;;;;;;;;;7.20;100.00;100497.63;5061158;28;5087;-74
2023/03/26 02:17:08;;;;;;;;;;;;;;;7.19;100.00;100503.72;5057466;28;1397;-75
2023/03/26 02:19:34;;;;;;;;;;;;;;;7.19;100.00;100483.06;5055384;28;1392;-75
2023/03/26 02:21:59;;;;;;;;;;;;;;;7.22;100.00;100490.56;5058748;28;1553;-75
2023/03/26 02:24:24;;;;;;;;;;;;;;;7.20;100.00;100489.88;5052263;28;1302;-75
2023/03/26 02:26:50;;;;;;;;;;;;;;;7.20;100.00;100479.56;5058527;28;1898;-74
2023/03/26 02:29:19;;;;;;;;;;;;;;;7.20;100.00;100474.41;5055608;28;1292;-75
2023/03/26 02:31:45;;;;;;;;;;;;;;;7.19;100.00;100472.75;5060573;28;1309;-74
2023/03/26 02:34:10;;;;;;;;;;;;;;;7.20;100.00;100474.41;5054359;28;1430;-74
2023/03/26 02:36:35;;;;;;;;;;;;;;;7.19;100.00;100477.91;5055686;28;1684;-74
2023/03/26 02:39:00;;;;;;;;;;;;;;;7.20;100.00;100469.25;5055609;28;1445;-75
2023/03/26 02:41:26;;;;;;;;;;;;;;;7.18;100.00;100468.53;5052537;28;1442;-75
2023/03/26 02:43:51;;;;;;;;;;;;;;;7.16;100.00;100465.22;5057004;28;1312;-75
2023/03/26 02:46:16;;;;;;;;;;;;;;;7.17;100.00;100464.31;5050839;28;1910;-74
2023/03/26 02:48:42;;;;;;;;;;;;;;;7.16;100.00;100457.50;5054830;28;1404;-75
2023/03/26 02:51:07;;;;;;;;;;;;;;;7.16;99.98;100457.50;5055072;28;1509;-74
2023/03/26 02:53:33;;;;;;;;;;;;;;;7.17;100.00;100454.00;5050258;28;1326;-74
2023/03/26 02:55:58;;;;;;;;;;;;;;;7.16;99.61;100453.16;5052005;28;1493;-75
2023/03/26 02:58:25;;;;;;;;;;;;;;;7.15;99.65;100450.69;5059223;28;1327;-75
2023/03/26 03:00:53;;;;;;;;;;;;;;;7.14;100.00;100449.88;5056910;28;1383;-75
2023/03/26 03:03:23;;;;;;;;;;;;;;;7.15;99.59;100456.69;5059181;28;1430;-74
2023/03/26 03:05:49;;;;;;;;;;;;;;;7.15;99.56;100448.13;5055697;28;1894;-74
2023/03/26 03:08:17;;;;;;;;;;;;;;;7.16;99.70;100436.88;5056324;28;2596;-74
2023/03/26 03:10:42;;;;;;;;;;;;;;;7.15;99.28;100433.47;5057236;28;1534;-75
2023/03/26 03:13:07;;;;;;;;;;;;;;;7.17;99.28;100438.53;5054951;28;1549;-75
2023/03/26 03:15:33;;;;;;;;;;;;;;;7.17;99.99;100433.38;5053227;28;5111;-76
2023/03/26 03:17:59;;;;;;;;;;;;;;;7.15;99.17;100430.06;5060551;28;1656;-74
2023/03/26 03:20:24;;;;;;;;;;;;;;;7.16;99.45;100431.72;5065287;28;1613;-74
2023/03/26 03:22:49;;;;;;;;;;;;;;;7.15;99.06;100435.22;5063668;28;1250;-75
2023/03/26 03:25:16;;;;;;;;;;;;;;;7.14;99.42;100429.25;5054593;28;1963;-75
2023/03/26 03:27:41;;;;;;;;;;;;;;;7.15;99.98;100424.91;5057992;28;1668;-76
2023/03/26 03:30:07;;;;;;;;;;;;;;;7.11;98.97;100420.91;5057305;28;1655;-75
2023/03/26 03:32:32;;;;;;;;;;;;;;;7.11;98.87;100418.31;5061692;28;1449;-74
2023/03/26 03:34:58;;;;;;;;;;;;;;;7.11;99.22;100415.75;5056319;28;1475;-75
2023/03/26 03:37:23;;;;;;;;;;;;;;;7.12;98.80;100409.69;5052573;28;1606;-75
2023/03/26 03:39:48;;;;;;;;;;;;;;;7.14;98.76;100402.63;5051270;28;1311;-74
2023/03/26 03:42:13;;;;;;;;;;;;;;;7.13;98.85;100403.59;5054014;28;1603;-75
2023/03/26 03:44:39;;;;;;;;;;;;;;;7.13;99.36;100411.31;5059718;28;1425;-75
2023/03/26 03:47:05;;;;;;;;;;;;;;;7.13;99.37;100401.81;5057134;28;2002;-74
2023/03/26 03:49:31;;;;;;;;;;;;;;;7.13;98.90;100391.50;5055422;28;1796;-75
2023/03/26 03:51:56;;;;;;;;;;;;;;;7.12;99.05;100399.38;5054690;28;1762;-75
2023/03/26 03:54:21;;;;;;;;;;;;;;;7.13;98.78;100391.50;5050493;28;1600;-74
2023/03/26 03:56:47;;;;;;;;;;;;;;;7.12;98.70;100395.03;5055053;28;1356;-74
2023/03/26 03:59:12;;;;;;;;;;;;;;;7.12;98.29;100394.19;5050334;28;1497;-75
2023/03/26 04:01:37;;;;;;;;;;;;;;;7.12;98.19;100389.03;5054002;28;1630;-73
2023/03/26 04:04:03;;;;;;;;;;;;;;;7.08;98.19;100377.31;5054568;28;2413;-74
2023/03/26 04:06:29;;;;;;;;;;;;;;;7.08;98.12;100377.31;5055686;28;1902;-75
2023/03/26 04:08:55;;;;;;;;;;;;;;;7.08;98.19;100382.47;5060467;28;1312;-74
2023/03/26 04:11:20;;;;;;;;;;;;;;;7.05;97.97;100377.53;5059004;28;1286;-75
2023/03/26 04:13:45;;;;;;;;;;;;;;;7.03;98.65;100374.25;5057986;28;4843;-75
2023/03/26 04:16:10;;;;;;;;;;;;;;;7.03;98.75;100369.09;5054662;28;1560;-75
2023/03/26 04:18:36;;;;;;;;;;;;;;;7.01;98.91;100368.38;5046982;28;1115;-75
2023/03/26 04:21:02;;;;;;;;;;;;;;;6.98;98.96;100360.88;5054334;28;1670;-74
2023/03/26 04:23:28;;;;;;;;;;;;;;;6.98;98.49;100360.88;5052604;28;1297;-74
2023/03/26 04:25:54;;;;;;;;;;;;;;;6.96;98.49;100352.44;5055198;28;1902;-75
2023/03/26 04:28:29;;;;;;;;;;;;;;;6.96;98.46;100357.59;5051590;28;1235;-75
2023/03/26 04:30:55;;;;;;;;;;;;;;;6.95;98.66;100345.63;5054478;28;1322;-74
2023/03/26 04:33:23;;;;;;;;;;;;;;;6.93;98.94;100349.13;5053056;28;1697;-74
2023/03/26 04:35:49;;;;;;;;;;;;;;;6.91;98.56;100340.69;5073425;28;2063;-74
2023/03/26 04:38:15;;;;;;;;;;;;;;;6.90;98.75;100333.91;5052718;28;1640;-75
2023/03/26 04:40:42;;;;;;;;;;;;;;;6.88;98.61;100330.63;5051795;28;1252;-74
2023/03/26 04:43:11;;;;;;;;;;;;;;;6.86;97.93;100327.31;5053969;28;1483;-75
2023/03/26 04:45:37;;;;;;;;;;;;;;;6.86;98.90;100316.19;5054054;28;1890;-75
2023/03/26 04:48:02;;;;;;;;;;;;;;;6.87;98.53;100317.84;5054037;28;1273;-75
2023/03/26 04:50:27;;;;;;;;;;;;;;;6.88;98.20;100315.16;5056751;28;1341;-75
2023/03/26 04:52:55;;;;;;;;;;;;;;;6.88;98.19;100312.59;5046852;28;1307;-75
2023/03/26 04:55:23;;;;;;;;;;;;;;;6.89;97.97;100309.06;5050122;28;1340;-75
2023/03/26 04:57:52;;;;;;;;;;;;;;;6.88;97.99;100304.84;5055732;28;1319;-74
2023/03/26 05:00:20;;;;;;;;;;;;;;;6.89;98.71;100306.50;5050565;28;2112;-75
2023/03/26 05:02:49;;;;;;;;;;;;;;;6.88;98.26;100289.38;5049659;28;1350;-74
2023/03/26 05:05:14;;;;;;;;;;;;;;;6.88;98.44;100286.81;5056267;28;1914;-74
2023/03/26 05:07:41;;;;;;;;;;;;;;;6.86;97.88;100286.09;5054177;28;1197;-75
2023/03/26 05:10:06;;;;;;;;;;;;;;;6.86;97.87;100286.09;5050305;28;1610;-75
2023/03/26 05:12:31;;;;;;;;;;;;;;;6.85;98.09;100283.63;5053061;28;1372;-75
2023/03/26 05:14:57;;;;;;;;;;;;;;;6.85;98.52;100279.28;5060488;28;5055;-75
2023/03/26 05:17:23;;;;;;;;;;;;;;;6.82;98.30;100279.50;5046573;28;1675;-74
2023/03/26 05:19:48;;;;;;;;;;;;;;;6.83;97.79;100270.84;5062687;28;1570;-74
2023/03/26 05:22:14;;;;;;;;;;;;;;;6.84;97.91;100272.50;5052595;28;1745;-74
2023/03/26 05:24:39;;;;;;;;;;;;;;;6.83;98.17;100270.84;5049654;28;1315;-74
2023/03/26 05:27:05;;;;;;;;;;;;;;;6.81;98.35;100262.41;5048793;28;1902;-74
2023/03/26 05:29:30;;;;;;;;;;;;;;;6.83;98.20;100260.56;5055726;28;1354;-75
2023/03/26 05:31:55;;;;;;;;;;;;;;;6.79;98.65;100251.41;5058986;28;1353;-75
2023/03/26 05:34:25;;;;;;;;;;;;;;;6.80;97.78;100260.75;5046083;28;1438;-75
2023/03/26 05:36:50;;;;;;;;;;;;;;;6.80;98.47;100260.75;5060001;28;1505;-74
2023/03/26 05:39:15;;;;;;;;;;;;;;;6.80;98.13;100255.59;5054653;28;1256;-75
2023/03/26 05:41:41;;;;;;;;;;;;;;;6.80;98.64;100247.88;5063263;28;2487;-74
2023/03/26 05:44:06;;;;;;;;;;;;;;;6.78;98.69;100242.03;5064681;28;1567;-74
2023/03/26 05:46:32;;;;;;;;;;;;;;;6.75;98.31;100247.41;5061096;28;1949;-75
2023/03/26 05:48:57;;;;;;;;;;;;;;;6.76;98.37;100233.56;5053924;28;1381;-75
2023/03/26 05:51:22;;;;;;;;;;;;;;;6.76;98.19;100243.88;5056564;28;1422;-74
2023/03/26 05:53:47;;;;;;;;;;;;;;;6.76;98.54;100233.56;5065776;28;1415;-74
2023/03/26 05:56:13;;;;;;;;;;;;;;;6.73;98.71;100226.09;5062733;28;2087;-74
2023/03/26 05:58:38;;;;;;;;;;;;;;;6.72;98.73;100226.22;5054679;28;1229;-74
2023/03/26 06:01:07;;;;;;;;;;;;;;;6.71;98.41;100220.25;5055456;28;1397;-75
2023/03/26 06:03:32;;;;;;;;;;;;;;;6.73;98.43;100225.25;5053769;28;1664;-74
2023/03/26 06:05:58;;;;;;;;;;;;;;;6.72;98.54;100221.06;5058550;28;1952;-74
2023/03/26 06:08:23;;;;;;;;;;;;;;;6.71;99.29;100209.94;5058167;28;1446;-74
2023/03/26 06:10:49;;;;;;;;;;;;;;;6.74;98.69;100204.53;5057264;28;1573;-74
2023/03/26 06:13:15;;;;;;;;;;;;;;;6.74;98.67;100201.94;5051699;28;1443;-74
2023/03/26 06:15:41;;;;;;;;;;;;;;;6.76;99.05;100202.66;5057185;28;5008;-74
2023/03/26 06:18:07;;;;;;;;;;;;;;;6.72;98.93;100201.25;5062093;28;1649;-75
2023/03/26 06:20:32;;;;;;;;;;;;;;;6.71;99.41;100197.03;5053994;28;1273;-74
2023/03/26 06:22:57;;;;;;;;;;;;;;;6.70;98.91;100192.81;5051076;28;1324;-74
2023/03/26 06:25:22;;;;;;;;;;;;;;;6.71;99.53;100194.47;5050491;28;1885;-74
2023/03/26 06:27:47;;;;;;;;;;;;;;;6.71;99.25;100193.63;5052193;28;1438;-74
2023/03/26 06:30:13;;;;;;;;;;;;;;;6.72;98.87;100196.09;5051894;28;1489;-75
2023/03/26 06:32:38;;;;;;;;;;;;;;;6.73;99.35;100197.75;5055561;28;1400;-74
2023/03/26 06:35:04;;;;;;;;;;;;;;;6.73;99.61;100181.47;5054808;28;1680;-74
2023/03/26 06:37:29;;;;;;;;;;;;;;;6.74;99.01;100189.06;5057990;28;1430;-74
2023/03/26 06:39:54;;;;;;;;;;;;;;;6.74;98.91;100183.91;5055631;28;1259;-74
2023/03/26 06:42:19;;;;;;;;;;;;;;;6.73;99.59;100187.44;5058528;28;1284;-74
2023/03/26 06:44:45;;;;;;;;;;;;;;;6.74;99.68;100189.06;5058851;28;1360;-75
2023/03/26 06:47:10;;;;;;;;;;;;;;;6.74;99.84;100191.63;5062348;28;1898;-74
2023/03/26 06:49:36;;;;;;;;;;;;;;;6.76;99.00;100186.38;5057249;28;1502;-76
2023/03/26 06:52:02;;;;;;;;;;;;;;;6.77;99.29;100188.84;5057248;28;2419;-75
2023/03/26 06:54:27;;;;;;;;;;;;;;;6.77;99.98;100183.69;5053523;28;1352;-74
2023/03/26 06:56:53;;;;;;;;;;;;;;;6.77;100.00;100188.84;5055144;28;1442;-75
2023/03/26 06:59:18;;;;;;;;;;;;;;;6.76;100.00;100187.19;5058973;28;1304;-75
2023/03/26 07:01:43;;;;;;;;;;;;;;;6.77;100.00;100191.44;5053802;28;1224;-75
2023/03/26 07:04:08;;;;;;;;;;;;;;;6.76;100.00;100187.19;5055218;28;1610;-74
2023/03/26 07:06:34;;;;;;;;;;;;;;;6.77;99.95;100181.13;5054957;28;2260;-75
2023/03/26 07:08:59;;;;;;;;;;;;;;;6.79;100.00;100186.97;5060241;28;1272;-75
2023/03/26 07:11:25;;;;;;;;;;;;;;;6.83;99.95;100192.72;5071814;28;1513;-74
2023/03/26 07:13:51;;;;;;;;;;;;;;;6.84;100.00;100184.03;5053862;28;5020;-74
2023/03/26 07:16:16;;;;;;;;;;;;;;;6.82;100.00;100184.13;5053784;28;1495;-73
2023/03/26 07:18:41;;;;;;;;;;;;;;;6.83;100.00;100177.25;5058537;28;1885;-74
2023/03/26 07:21:07;;;;;;;;;;;;;;;6.83;100.00;100172.91;5055431;28;1289;-74
2023/03/26 07:23:32;;;;;;;;;;;;;;;6.82;99.82;100176.41;5055319;28;1334;-74
2023/03/26 07:25:58;;;;;;;;;;;;;;;6.81;100.00;100177.34;5053479;28;1963;-75
2023/03/26 07:28:40;;;;;;;;;;;;;;;6.82;100.00;100186.72;5049262;28;1411;-74
2023/03/26 07:31:28;;;;;;;;;;;;;;;6.83;100.00;100178.06;5063690;28;1577;-74
2023/03/26 07:33:53;;;;;;;;;;;;;;;6.82;100.00;100171.25;5048916;28;1513;-73
2023/03/26 07:36:37;;;;;;;;;;;;;;;6.83;100.00;100177.25;5055410;28;1275;-75
2023/03/26 07:39:38;;;;;;;;;;;;;;;6.81;100.00;100169.63;5055298;28;1274;-74
2023/03/26 07:42:03;;;;;;;;;;;;;;;6.82;100.00;100175.59;5035277;28;1785;-74
2023/03/26 07:44:31;;;;;;;;;;;;;;;6.80;100.00;100178.28;5041899;28;1687;-74
2023/03/26 07:46:59;;;;;;;;;;;;;;;6.81;100.00;100179.91;5053009;28;1899;-74
2023/03/26 07:49:25;;;;;;;;;;;;;;;6.81;100.00;100172.19;5057958;28;2364;-74
2023/03/26 07:51:51;;;;;;;;;;;;;;;6.81;100.00;100169.63;5057045;28;1370;-73
2023/03/26 07:54:16;;;;;;;;;;;;;;;6.79;100.00;100168.91;5052964;28;1610;-74
2023/03/26 07:56:54;;;;;;;;;;;;;;;6.79;100.00;100168.91;5055791;28;1417;-75
2023/03/26 07:59:23;;;;;;;;;;;;;;;6.79;100.00;100161.19;5058556;28;1343;-74
2023/03/26 08:01:53;;;;;;;;;;;;;;;6.79;100.00;100166.34;5056549;28;1522;-73
2023/03/26 08:04:33;;;;;;;;;;;;;;;6.79;100.00;100166.34;5052397;28;1378;-74
2023/03/26 08:07:04;;;;;;;;;;;;;;;6.81;100.00;100169.63;5053055;28;1947;-74
2023/03/26 08:09:48;;;;;;;;;;;;;;;6.82;100.00;100160.94;5053575;28;1398;-75
2023/03/26 08:12:13;;;;;;;;;;;;;;;6.82;100.00;100163.50;5051362;28;1232;-74
2023/03/26 08:14:53;;;;;;;;;;;;;;;6.83;100.00;100157.44;5057950;28;5010;-74
2023/03/26 08:17:19;;;;;;;;;;;;;;;6.84;100.00;100159.09;5051283;28;1487;-73
2023/03/26 08:20:06;;;;;;;;;;;;;;;6.86;100.00;100157.19;5053808;28;1313;-74
2023/03/26 08:22:39;;;;;;;;;;;;;;;6.87;100.00;100160.59;5054269;28;1231;-75
2023/03/26 08:25:12;;;;;;;;;;;;;;;6.87;100.00;100164.00;5054768;28;1259;-74
2023/03/26 08:27:56;;;;;;;;;;;;;;;6.88;100.00;100155.34;5055068;28;1898;-74
2023/03/26 08:30:23;;;;;;;;;;;;;;;6.91;100.00;100159.44;5054023;28;1634;-74
2023/03/26 08:32:56;;;;;;;;;;;;;;;6.92;100.00;100161.88;5062413;28;1676;-74
2023/03/26 08:35:21;;;;;;;;;;;;;;;6.96;100.00;100161.66;5055374;28;1791;-74
2023/03/26 08:37:47;;;;;;;;;;;;;;;6.98;100.00;100159.78;5058789;28;1387;-74
2023/03/26 08:40:16;;;;;;;;;;;;;;;7.00;100.00;100155.34;5053787;28;1351;-74
2023/03/26 08:42:41;;;;;;;;;;;;;;;7.02;100.00;100158.59;5052317;28;1635;-74
2023/03/26 08:45:20;;;;;;;;;;;;;;;7.03;100.00;100157.66;5052515;28;2307;-74
2023/03/26 08:48:04;;;;;;;;;;;;;;;7.04;100.00;100160.13;5054351;28;1249;-74
2023/03/26 08:50:29;;;;;;;;;;;;;;;7.07;100.00;100159.06;5058842;28;1145;-74
2023/03/26 08:53:13;;;;;;;;;;;;;;;7.05;100.00;100155.78;5059032;28;1259;-74
2023/03/26 08:55:41;;;;;;;;;;;;;;;7.05;100.00;100151.44;5053407;28;1152;-74
2023/03/26 08:58:25;;;;;;;;;;;;;;;7.06;100.00;100147.13;5055963;28;1204;-74
2023/03/26 09:01:02;;;;;;;;;;;;;;;7.08;100.00;100150.38;5055221;28;1311;-74
2023/03/26 09:03:46;;;;;;;;;;;;;;;7.11;100.00;100144.97;5056197;28;1255;-74
2023/03/26 09:06:26;;;;;;;;;;;;;;;7.16;100.00;100148.03;5053831;28;1956;-74
2023/03/26 09:09:00;;;;;;;;;;;;;;;7.21;100.00;100145.91;5054043;28;1304;-74
2023/03/26 09:11:32;;;;;;;;;;;;;;;7.23;100.00;100149.22;5055399;28;1150;-73
2023/03/26 09:13:58;;;;;;;;;;;;;;;7.25;100.00;100142.16;5056932;28;5028;-74
2023/03/26 09:16:37;;;;;;;;;;;;;;;7.26;100.00;100142.97;5057154;28;1394;-75
2023/03/26 09:19:12;;;;;;;;;;;;;;;7.26;100.00;100145.56;5059272;28;1307;-74
2023/03/26 09:21:41;;;;;;;;;;;;;;;7.27;100.00;100137.69;5053561;28;1541;-74
2023/03/26 09:24:19;;;;;;;;;;;;;;;7.31;100.00;100131.34;5061647;28;1488;-74
2023/03/26 09:26:57;;;;;;;;;;;;;;;7.28;100.00;100136.75;5060539;28;1890;-74
2023/03/26 09:29:31;;;;;;;;;;;;;;;7.27;100.00;100132.53;5057154;28;1257;-74
2023/03/26 09:32:02;;;;;;;;;;;;;;;7.28;100.00;100129.00;5060009;28;1422;-74
2023/03/26 09:34:42;;;;;;;;;;;;;;;7.30;100.00;100134.06;5056366;28;1503;-74
2023/03/26 09:37:17;;;;;;;;;;;;;;;7.33;100.00;100128.66;5052597;28;1339;-74
2023/03/26 09:39:42;;;;;;;;;;;;;;;7.36;100.00;100128.41;5058215;28;1315;-74
2023/03/26 09:42:14;;;;;;;;;;;;;;;7.41;100.00;100124.53;5059963;28;2297;-74
2023/03/26 09:44:58;;;;;;;;;;;;;;;7.44;100.00;100131.19;5057568;28;1821;-74
2023/03/26 09:47:33;;;;;;;;;;;;;;;7.45;100.00;100130.25;5059314;28;1906;-74
2023/03/26 09:50:17;;;;;;;;;;;;;;;7.48;100.00;100131.78;5050593;28;1285;-74
2023/03/26 09:52:45;;;;;;;;;;;;;;;7.48;100.00;100132.59;5054095;28;1235;-74
2023/03/26 09:55:19;;;;;;;;;;;;;;;7.44;100.00;100121.69;5055431;28;1207;-74
2023/03/26 09:58:02;;;;;;;;;;;;;;;7.49;100.00;100131.66;5057055;28;1437;-74
2023/03/26 10:00:30;;;;;;;;;;;;;;;7.54;100.00;100126.13;5064329;28;1537;-74
2023/03/26 10:02:56;;;;;;;;;;;;;;;7.58;100.00;100135.28;5059896;28;1305;-75
2023/03/26 10:05:26;;;;;;;;;;;;;;;7.60;100.00;100135.97;5062723;28;1894;-74
2023/03/26 10:07:51;;;;;;;;;;;;;;;7.63;100.00;100133.16;5057525;28;1342;-74
2023/03/26 10:10:30;;;;;;;;;;;;;;;7.66;100.00;100135.47;5063875;28;1500;-74
2023/03/26 10:13:06;;;;;;;;;;;;;;;7.68;100.00;100138.72;5053982;28;1604;-74
2023/03/26 10:15:44;;;;;;;;;;;;;;;7.67;100.00;100139.69;5057044;28;5015;-74
2023/03/26 10:18:09;;;;;;;;;;;;;;;7.70;100.00;100136.88;5056913;28;1336;-74
2023/03/26 10:20:43;;;;;;;;;;;;;;;7.73;100.00;100136.59;5051685;28;1208;-74
2023/03/26 10:23:17;;;;;;;;;;;;;;;7.77;100.00;100143.16;5053064;28;1405;-74
2023/03/26 10:26:09;;;;;;;;;;;;;;;7.81;100.00;100144.56;5049201;28;1894;-75
2023/03/26 10:28:46;;;;;;;;;;;;;;;7.85;100.00;100145.94;5044291;28;1381;-74
2023/03/26 10:31:12;;;;;;;;;;;;;;;7.89;100.00;100147.34;5058781;28;1262;-74
2023/03/26 10:33:37;;;;;;;;;;;;;;;7.87;100.00;100149.22;5060285;28;1560;-74
2023/03/26 10:36:21;;;;;;;;;;;;;;;7.89;100.00;100146.50;5055165;28;1224;-74
2023/03/26 10:38:55;;;;;;;;;;;;;;;7.88;100.00;100148.28;5055465;28;1338;-74
2023/03/26 10:41:38;;;;;;;;;;;;;;;7.91;100.00;100150.63;5060645;28;1508;-74
2023/03/26 10:44:12;;;;;;;;;;;;;;;7.96;100.00;100152.81;5057859;28;1396;-74
2023/03/26 10:46:42;;;;;;;;;;;;;;;7.99;100.00;100153.38;5064476;28;1894;-75
2023/03/26 10:49:14;;;;;;;;;;;;;;;8.05;100.00;100151.25;5055949;28;1449;-74
2023/03/26 10:51:47;;;;;;;;;;;;;;;8.07;100.00;100151.94;5069947;28;1389;-76
2023/03/26 10:54:31;;;;;;;;;;;;;;;8.10;100.00;100146.53;5056280;28;1573;-75
2023/03/26 10:56:57;;;;;;;;;;;;;;;8.14;100.00;100155.66;5053387;28;1469;-74
2023/03/26 10:59:25;;;;;;;;;;;;;;;8.17;100.00;100155.41;5055048;28;1488;-76
2023/03/26 11:01:53;;;;;;;;;;;;;;;8.20;100.00;100156.00;5060271;28;1252;-76
2023/03/26 11:04:37;;;;;;;;;;;;;;;8.24;100.00;100152.19;5050073;28;1593;-75
2023/03/26 11:07:10;;;;;;;;;;;;;;;8.25;100.00;100148.66;5054629;28;1960;-74
2023/03/26 11:09:58;;;;;;;;;;;;;;;8.32;100.00;100158.50;5052925;28;1437;-75
2023/03/26 11:12:26;;;;;;;;;;;;;;;8.35;100.00;100153.06;5050537;28;1224;-74
2023/03/26 11:15:03;;;;;;;;;;;;;;;8.36;100.00;100165.06;5051523;28;4765;-74
2023/03/26 11:17:41;;;;;;;;;;;;;;;8.39;100.00;100160.47;5057227;28;1585;-78
2023/03/26 11:20:10;;;;;;;;;;;;;;;8.37;100.00;100158.94;5059372;28;1290;-74
2023/03/26 11:22:42;;;;;;;;;;;;;;;8.35;100.00;100164.22;5056434;28;1255;-74
2023/03/26 11:25:16;;;;;;;;;;;;;;;8.38;100.00;100164.03;5058582;28;1638;-75
2023/03/26 11:28:00;;;;;;;;;;;;;;;8.41;100.00;100168.91;5062369;28;2133;-74
2023/03/26 11:30:39;;;;;;;;;;;;;;;8.44;100.00;100171.25;5055594;28;1684;-74
2023/03/26 11:33:06;;;;;;;;;;;;;;;8.47;100.00;100173.56;5052561;28;2504;-74
2023/03/26 11:35:35;;;;;;;;;;;;;;;8.48;100.00;100172.63;5050931;28;1711;-75
2023/03/26 11:38:04;;;;;;;;;;;;;;;8.50;100.00;100177.69;5059056;28;1522;-74
2023/03/26 11:40:40;;;;;;;;;;;;;;;8.44;99.66;100173.84;5056951;28;1411;-75
2023/03/26 11:43:07;;;;;;;;;;;;;;;8.43;100.00;100177.38;5056761;28;1268;-75
2023/03/26 11:45:36;;;;;;;;;;;;;;;8.45;100.00;100175.47;5053409;28;1886;-74
2023/03/26 11:48:08;;;;;;;;;;;;;;;8.47;100.00;100178.75;5052914;28;1385;-76
2023/03/26 11:50:35;;;;;;;;;;;;;;;8.47;100.00;100173.56;5054529;28;1310;-75
2023/03/26 11:53:13;;;;;;;;;;;;;;;8.50;100.00;100173.34;5048849;28;1687;-75
2023/03/26 11:55:59;;;;;;;;;;;;;;;8.52;100.00;100174.00;5056132;28;1436;-74
2023/03/26 11:58:29;;;;;;;;;;;;;;;8.47;100.00;100178.75;5053769;28;1367;-75
2023/03/26 12:00:55;;;;;;;;;;;;;;;8.42;100.00;100178.31;5051819;28;1403;-74
2023/03/26 12:03:20;;;;;;;;;;;;;;;8.36;100.00;100186.56;5050414;28;1262;-75
2023/03/26 12:05:47;;;;;;;;;;;;;;;8.29;100.00;100175.06;5052396;28;1968;-74
2023/03/26 12:08:27;;;;;;;;;;;;;;;8.21;100.00;100187.81;5052331;28;1576;-74
2023/03/26 12:11:05;;;;;;;;;;;;;;;8.07;100.00;100185.50;5055611;28;1596;-75
2023/03/26 12:13:36;;;;;;;;;;;;;;;7.97;100.00;100201.78;5051678;28;1411;-74
2023/03/26 12:16:07;;;;;;;;;;;;;;;7.87;100.00;100203.44;5052067;28;1318;-75
2023/03/26 12:18:35;;;;;;;;;;;;;;;7.72;100.00;100207.25;5049601;28;1395;-75
2023/03/26 12:21:06;;;;;;;;;;;;;;;7.56;100.00;100211.97;5053892;28;1246;-76
2023/03/26 12:23:34;;;;;;;;;;;;;;;7.43;100.00;100212.94;5052513;28;1468;-75
2023/03/26 12:26:04;;;;;;;;;;;;;;;7.37;100.00;100213.41;5049840;28;1983;-75
2023/03/26 12:28:32;;;;;;;;;;;;;;;7.38;100.00;100215.06;5050007;28;1344;-75
2023/03/26 12:30:59;;;;;;;;;;;;;;;7.39;100.00;100216.69;5058447;28;2594;-74
2023/03/26 12:33:37;;;;;;;;;;;;;;;7.44;100.00;100209.41;5059936;28;1170;-75
2023/03/26 12:36:20;;;;;;;;;;;;;;;7.50;100.00;100217.63;5059083;28;1381;-76
2023/03/26 12:38:45;;;;;;;;;;;;;;;7.48;100.00;100224.66;5051807;28;1550;-75
2023/03/26 12:41:11;;;;;;;;;;;;;;;7.44;100.00;100222.31;5058392;28;1366;-75
2023/03/26 12:43:45;;;;;;;;;;;;;;;7.42;100.00;100225.97;5058628;28;1233;-75
2023/03/26 12:46:30;;;;;;;;;;;;;;;7.40;100.00;100222.69;5053119;28;1938;-74
2023/03/26 12:48:58;;;;;;;;;;;;;;;7.33;100.00;100224.91;5056211;28;1370;-75
2023/03/26 12:51:32;;;;;;;;;;;;;;;7.28;100.00;100229.59;5060993;28;1380;-75
2023/03/26 12:54:04;;;;;;;;;;;;;;;7.22;100.00;100230.06;5054430;28;1496;-75
2023/03/26 12:56:35;;;;;;;;;;;;;;;7.13;100.00;100241.13;5056081;28;1263;-75
2023/03/26 12:59:00;;;;;;;;;;;;;;;7.05;100.00;100233.13;5057450;28;1608;-76
2023/03/26 13:01:49;;;;;;;;;;;;;;;7.03;100.00;100246.13;5065189;28;1518;-75